sensor_id;sensor_type;location;lat;lon;timestamp;P1;durP1;ratioP1;P2;durP2;ratioP2
9254;SDS011;4663;49.120;9.730;2022-09-09T00:06:30;93.60;;;89.25;;
9254;SDS011;4663;49.120;9.730;2022-09-09T00:11:43;85.35;;;81.25;;
9254;SDS011;4663;49.120;9.730;2022-09-09T00:14:14;83.78;;;79.80;;
9254;SDS011;4663;49.120;9.730;2022-09-09T00:16:54;93.57;;;89.18;;
9254;SDS011;4663;49.120;9.730;2022-09-09T00:19:33;87.78;;;83.68;;
9254;SDS011;4663;49.120;9.730;2022-09-09T00:22:18;96.72;;;92.18;;
9254;SDS011;4663;49.120;9.730;2022-09-09T00:24:51;98.55;;;93.88;;
9254;SDS011;4663;49.120;9.730;2022-09-09T00:32:47;90.80;;;86.43;;
9254;SDS011;4663;49.120;9.730;2022-09-09T00:37:55;87.90;;;83.78;;
9254;SDS011;4663;49.120;9.730;2022-09-09T00:40:27;84.65;;;80.68;;
9254;SDS011;4663;49.120;9.730;2022-09-09T00:48:35;80.32;;;76.45;;
9254;SDS011;4663;49.120;9.730;2022-09-09T01:05:33;94.25;;;89.90;;
9254;SDS011;4663;49.120;9.730;2022-09-09T01:08:00;101.15;;;96.53;;
9254;SDS011;4663;49.120;9.730;2022-09-09T01:12:57;103.13;;;98.38;;
9254;SDS011;4663;49.120;9.730;2022-09-09T01:15:27;101.38;;;96.72;;
9254;SDS011;4663;49.120;9.730;2022-09-09T01:20:44;97.45;;;92.93;;
9254;SDS011;4663;49.120;9.730;2022-09-09T01:26:27;101.72;;;97.05;;
9254;SDS011;4663;49.120;9.730;2022-09-09T01:28:57;99.53;;;94.82;;
9254;SDS011;4663;49.120;9.730;2022-09-09T01:31:26;111.72;;;106.47;;
9254;SDS011;4663;49.120;9.730;2022-09-09T01:34:08;120.63;;;115.10;;
9254;SDS011;4663;49.120;9.730;2022-09-09T01:36:56;113.53;;;108.30;;
9254;SDS011;4663;49.120;9.730;2022-09-09T01:39:25;109.70;;;104.72;;
9254;SDS011;4663;49.120;9.730;2022-09-09T01:41:51;114.88;;;109.70;;
9254;SDS011;4663;49.120;9.730;2022-09-09T01:44:18;108.63;;;103.70;;
9254;SDS011;4663;49.120;9.730;2022-09-09T01:46:44;121.47;;;115.97;;
9254;SDS011;4663;49.120;9.730;2022-09-09T01:49:10;114.95;;;109.45;;
9254;SDS011;4663;49.120;9.730;2022-09-09T01:51:36;124.57;;;118.57;;
9254;SDS011;4663;49.120;9.730;2022-09-09T01:54:04;116.18;;;110.70;;
9254;SDS011;4663;49.120;9.730;2022-09-09T01:59:20;87.35;;;83.32;;
9254;SDS011;4663;49.120;9.730;2022-09-09T02:02:06;84.20;;;80.18;;
9254;SDS011;4663;49.120;9.730;2022-09-09T02:04:54;80.88;;;77.07;;
9254;SDS011;4663;49.120;9.730;2022-09-09T02:10:20;74.40;;;70.78;;
9254;SDS011;4663;49.120;9.730;2022-09-09T02:12:51;73.82;;;70.25;;
9254;SDS011;4663;49.120;9.730;2022-09-09T02:16:22;61.33;;;58.42;;
9254;SDS011;4663;49.120;9.730;2022-09-09T02:18:40;60.15;;;57.15;;
9254;SDS011;4663;49.120;9.730;2022-09-09T02:21:07;59.30;;;56.40;;
9254;SDS011;4663;49.120;9.730;2022-09-09T02:23:33;57.30;;;54.50;;
9254;SDS011;4663;49.120;9.730;2022-09-09T02:26:00;61.70;;;58.70;;
9254;SDS011;4663;49.120;9.730;2022-09-09T02:28:27;62.95;;;59.72;;
9254;SDS011;4663;49.120;9.730;2022-09-09T02:30:55;57.97;;;55.17;;
9254;SDS011;4663;49.120;9.730;2022-09-09T02:33:22;54.03;;;51.42;;
9254;SDS011;4663;49.120;9.730;2022-09-09T02:35:52;47.00;;;44.78;;
9254;SDS011;4663;49.120;9.730;2022-09-09T02:38:21;48.78;;;46.38;;
9254;SDS011;4663;49.120;9.730;2022-09-09T02:40:51;47.50;;;45.20;;
9254;SDS011;4663;49.120;9.730;2022-09-09T02:43:17;44.10;;;41.78;;
9254;SDS011;4663;49.120;9.730;2022-09-09T02:46:08;46.42;;;44.13;;
9254;SDS011;4663;49.120;9.730;2022-09-09T02:48:51;51.40;;;48.88;;
9254;SDS011;4663;49.120;9.730;2022-09-09T02:54:07;49.15;;;46.85;;
9254;SDS011;4663;49.120;9.730;2022-09-09T02:56:42;48.15;;;45.75;;
9254;SDS011;4663;49.120;9.730;2022-09-09T02:59:14;46.83;;;44.53;;
9254;SDS011;4663;49.120;9.730;2022-09-09T03:01:41;44.92;;;42.72;;
9254;SDS011;4663;49.120;9.730;2022-09-09T03:04:06;48.40;;;46.03;;
9254;SDS011;4663;49.120;9.730;2022-09-09T03:06:32;46.95;;;44.75;;
9254;SDS011;4663;49.120;9.730;2022-09-09T03:08:58;47.05;;;44.65;;
9254;SDS011;4663;49.120;9.730;2022-09-09T03:11:25;45.20;;;43.08;;
9254;SDS011;4663;49.120;9.730;2022-09-09T03:13:52;49.92;;;47.50;;
9254;SDS011;4663;49.120;9.730;2022-09-09T03:16:18;47.22;;;44.92;;
9254;SDS011;4663;49.120;9.730;2022-09-09T03:18:43;43.70;;;41.60;;
9254;SDS011;4663;49.120;9.730;2022-09-09T03:21:10;43.22;;;41.13;;
9254;SDS011;4663;49.120;9.730;2022-09-09T03:23:36;44.22;;;42.00;;
9254;SDS011;4663;49.120;9.730;2022-09-09T03:26:01;44.05;;;41.78;;
9254;SDS011;4663;49.120;9.730;2022-09-09T03:28:27;44.70;;;42.55;;
9254;SDS011;4663;49.120;9.730;2022-09-09T03:31:03;42.72;;;40.63;;
9254;SDS011;4663;49.120;9.730;2022-09-09T03:33:29;43.78;;;41.65;;
9254;SDS011;4663;49.120;9.730;2022-09-09T03:35:55;42.55;;;40.55;;
9254;SDS011;4663;49.120;9.730;2022-09-09T03:38:24;43.05;;;40.95;;
9254;SDS011;4663;49.120;9.730;2022-09-09T03:40:51;42.42;;;40.17;;
9254;SDS011;4663;49.120;9.730;2022-09-09T03:43:20;41.38;;;39.30;;
9254;SDS011;4663;49.120;9.730;2022-09-09T03:45:46;40.88;;;38.85;;
9254;SDS011;4663;49.120;9.730;2022-09-09T03:48:12;41.90;;;39.88;;
9254;SDS011;4663;49.120;9.730;2022-09-09T03:50:38;40.92;;;38.97;;
9254;SDS011;4663;49.120;9.730;2022-09-09T03:53:04;43.17;;;41.03;;
9254;SDS011;4663;49.120;9.730;2022-09-09T03:55:31;41.50;;;39.25;;
9254;SDS011;4663;49.120;9.730;2022-09-09T03:57:57;41.90;;;39.78;;
9254;SDS011;4663;49.120;9.730;2022-09-09T04:00:22;41.35;;;39.30;;
9254;SDS011;4663;49.120;9.730;2022-09-09T04:02:48;43.40;;;41.20;;
9254;SDS011;4663;49.120;9.730;2022-09-09T04:05:14;43.80;;;41.58;;
9254;SDS011;4663;49.120;9.730;2022-09-09T04:07:40;46.67;;;44.28;;
9254;SDS011;4663;49.120;9.730;2022-09-09T04:10:06;44.60;;;42.38;;
9254;SDS011;4663;49.120;9.730;2022-09-09T04:12:33;44.83;;;42.42;;
9254;SDS011;4663;49.120;9.730;2022-09-09T04:14:59;45.60;;;43.22;;
9254;SDS011;4663;49.120;9.730;2022-09-09T04:17:25;46.25;;;43.88;;
9254;SDS011;4663;49.120;9.730;2022-09-09T04:19:51;44.20;;;42.03;;
9254;SDS011;4663;49.120;9.730;2022-09-09T04:22:16;43.83;;;41.53;;
9254;SDS011;4663;49.120;9.730;2022-09-09T04:24:41;42.47;;;40.40;;
9254;SDS011;4663;49.120;9.730;2022-09-09T04:27:07;37.20;;;35.20;;
9254;SDS011;4663;49.120;9.730;2022-09-09T04:29:32;44.42;;;42.10;;
9254;SDS011;4663;49.120;9.730;2022-09-09T04:31:58;44.97;;;42.70;;
9254;SDS011;4663;49.120;9.730;2022-09-09T04:34:24;47.78;;;45.35;;
9254;SDS011;4663;49.120;9.730;2022-09-09T04:36:50;50.80;;;48.30;;
9254;SDS011;4663;49.120;9.730;2022-09-09T04:39:17;53.78;;;51.03;;
9254;SDS011;4663;49.120;9.730;2022-09-09T04:41:42;62.22;;;59.13;;
9254;SDS011;4663;49.120;9.730;2022-09-09T04:44:07;56.75;;;53.88;;
9254;SDS011;4663;49.120;9.730;2022-09-09T04:46:33;54.90;;;52.20;;
9254;SDS011;4663;49.120;9.730;2022-09-09T04:48:59;60.58;;;57.53;;
9254;SDS011;4663;49.120;9.730;2022-09-09T04:51:24;56.33;;;53.50;;
9254;SDS011;4663;49.120;9.730;2022-09-09T04:53:50;56.53;;;53.55;;
9254;SDS011;4663;49.120;9.730;2022-09-09T04:56:17;59.03;;;56.10;;
9254;SDS011;4663;49.120;9.730;2022-09-09T04:58:43;58.63;;;55.75;;
9254;SDS011;4663;49.120;9.730;2022-09-09T05:01:10;60.63;;;57.50;;
9254;SDS011;4663;49.120;9.730;2022-09-09T05:03:36;64.40;;;61.13;;
9254;SDS011;4663;49.120;9.730;2022-09-09T05:06:09;62.40;;;59.38;;
9254;SDS011;4663;49.120;9.730;2022-09-09T05:08:37;63.28;;;60.22;;
9254;SDS011;4663;49.120;9.730;2022-09-09T05:11:03;57.70;;;54.92;;
9254;SDS011;4663;49.120;9.730;2022-09-09T05:13:37;58.33;;;55.45;;
9254;SDS011;4663;49.120;9.730;2022-09-09T05:16:02;58.55;;;55.42;;
9254;SDS011;4663;49.120;9.730;2022-09-09T05:18:28;52.85;;;50.25;;
9254;SDS011;4663;49.120;9.730;2022-09-09T05:20:58;56.35;;;53.60;;
9254;SDS011;4663;49.120;9.730;2022-09-09T05:23:24;65.15;;;61.97;;
9254;SDS011;4663;49.120;9.730;2022-09-09T05:25:56;76.55;;;72.80;;
9254;SDS011;4663;49.120;9.730;2022-09-09T05:28:22;83.10;;;78.88;;
9254;SDS011;4663;49.120;9.730;2022-09-09T05:30:59;91.90;;;87.60;;
9254;SDS011;4663;49.120;9.730;2022-09-09T05:33:30;99.80;;;94.88;;
9254;SDS011;4663;49.120;9.730;2022-09-09T05:35:59;115.80;;;110.22;;
9254;SDS011;4663;49.120;9.730;2022-09-09T05:38:28;128.15;;;122.15;;
9254;SDS011;4663;49.120;9.730;2022-09-09T05:40:54;115.47;;;110.07;;
9254;SDS011;4663;49.120;9.730;2022-09-09T05:43:21;99.35;;;94.63;;
9254;SDS011;4663;49.120;9.730;2022-09-09T05:45:47;77.70;;;73.80;;
9254;SDS011;4663;49.120;9.730;2022-09-09T05:48:16;44.78;;;42.25;;
9254;SDS011;4663;49.120;9.730;2022-09-09T05:50:42;41.97;;;39.90;;
9254;SDS011;4663;49.120;9.730;2022-09-09T05:53:08;44.17;;;41.95;;
9254;SDS011;4663;49.120;9.730;2022-09-09T05:55:35;42.95;;;40.75;;
9254;SDS011;4663;49.120;9.730;2022-09-09T05:58:00;44.45;;;42.00;;
9254;SDS011;4663;49.120;9.730;2022-09-09T06:00:26;46.10;;;43.65;;
9254;SDS011;4663;49.120;9.730;2022-09-09T06:02:52;41.28;;;38.83;;
9254;SDS011;4663;49.120;9.730;2022-09-09T06:05:18;45.90;;;43.42;;
9254;SDS011;4663;49.120;9.730;2022-09-09T06:07:44;42.20;;;39.88;;
9254;SDS011;4663;49.120;9.730;2022-09-09T06:10:10;46.83;;;44.42;;
9254;SDS011;4663;49.120;9.730;2022-09-09T06:12:35;43.35;;;40.92;;
9254;SDS011;4663;49.120;9.730;2022-09-09T06:15:01;42.45;;;40.35;;
9254;SDS011;4663;49.120;9.730;2022-09-09T06:17:26;43.33;;;41.08;;
9254;SDS011;4663;49.120;9.730;2022-09-09T06:19:52;39.60;;;37.60;;
9254;SDS011;4663;49.120;9.730;2022-09-09T06:22:18;38.28;;;36.08;;
9254;SDS011;4663;49.120;9.730;2022-09-09T06:24:44;42.72;;;40.38;;
9254;SDS011;4663;49.120;9.730;2022-09-09T06:27:09;53.05;;;50.50;;
9254;SDS011;4663;49.120;9.730;2022-09-09T06:29:35;69.65;;;66.10;;
9254;SDS011;4663;49.120;9.730;2022-09-09T06:32:01;66.95;;;63.72;;
9254;SDS011;4663;49.120;9.730;2022-09-09T06:34:27;47.33;;;44.88;;
9254;SDS011;4663;49.120;9.730;2022-09-09T06:36:53;30.73;;;29.20;;
9254;SDS011;4663;49.120;9.730;2022-09-09T06:39:19;22.40;;;21.35;;
9254;SDS011;4663;49.120;9.730;2022-09-09T06:41:44;21.48;;;20.38;;
9254;SDS011;4663;49.120;9.730;2022-09-09T06:44:10;24.70;;;23.27;;
9254;SDS011;4663;49.120;9.730;2022-09-09T06:46:38;30.30;;;28.80;;
9254;SDS011;4663;49.120;9.730;2022-09-09T06:49:04;30.50;;;29.00;;
9254;SDS011;4663;49.120;9.730;2022-09-09T06:51:30;28.08;;;26.77;;
9254;SDS011;4663;49.120;9.730;2022-09-09T06:54:00;19.55;;;18.55;;
9254;SDS011;4663;49.120;9.730;2022-09-09T06:58:57;17.30;;;16.50;;
9254;SDS011;4663;49.120;9.730;2022-09-09T07:01:26;25.02;;;23.63;;
9254;SDS011;4663;49.120;9.730;2022-09-09T07:03:54;27.05;;;25.63;;
9254;SDS011;4663;49.120;9.730;2022-09-09T07:08:52;23.77;;;22.67;;
9254;SDS011;4663;49.120;9.730;2022-09-09T07:11:20;26.08;;;24.85;;
9254;SDS011;4663;49.120;9.730;2022-09-09T07:13:47;25.58;;;24.35;;
9254;SDS011;4663;49.120;9.730;2022-09-09T07:16:15;25.80;;;24.40;;
9254;SDS011;4663;49.120;9.730;2022-09-09T07:18:42;25.98;;;24.77;;
9254;SDS011;4663;49.120;9.730;2022-09-09T07:21:11;26.98;;;25.67;;
9254;SDS011;4663;49.120;9.730;2022-09-09T07:23:38;25.75;;;24.55;;
9254;SDS011;4663;49.120;9.730;2022-09-09T07:26:11;26.75;;;25.45;;
9254;SDS011;4663;49.120;9.730;2022-09-09T07:28:38;24.25;;;23.05;;
9254;SDS011;4663;49.120;9.730;2022-09-09T07:31:05;20.98;;;19.98;;
9254;SDS011;4663;49.120;9.730;2022-09-09T07:33:32;23.40;;;22.25;;
9254;SDS011;4663;49.120;9.730;2022-09-09T07:36:06;20.27;;;19.17;;
9254;SDS011;4663;49.120;9.730;2022-09-09T07:38:37;21.13;;;20.02;;
9254;SDS011;4663;49.120;9.730;2022-09-09T07:41:09;21.90;;;20.88;;
9254;SDS011;4663;49.120;9.730;2022-09-09T07:43:44;19.08;;;18.17;;
9254;SDS011;4663;49.120;9.730;2022-09-09T07:46:11;20.38;;;19.20;;
9254;SDS011;4663;49.120;9.730;2022-09-09T07:48:38;18.23;;;17.33;;
9254;SDS011;4663;49.120;9.730;2022-09-09T07:51:10;18.35;;;17.45;;
9254;SDS011;4663;49.120;9.730;2022-09-09T07:53:42;18.60;;;17.70;;
9254;SDS011;4663;49.120;9.730;2022-09-09T07:56:11;19.90;;;18.88;;
9254;SDS011;4663;49.120;9.730;2022-09-09T07:58:39;17.67;;;16.58;;
9254;SDS011;4663;49.120;9.730;2022-09-09T08:01:12;20.17;;;19.10;;
9254;SDS011;4663;49.120;9.730;2022-09-09T08:03:38;22.15;;;21.05;;
9254;SDS011;4663;49.120;9.730;2022-09-09T08:06:04;22.00;;;21.00;;
9254;SDS011;4663;49.120;9.730;2022-09-09T08:08:32;24.65;;;23.35;;
9254;SDS011;4663;49.120;9.730;2022-09-09T08:11:06;24.73;;;23.55;;
9254;SDS011;4663;49.120;9.730;2022-09-09T08:13:37;24.40;;;23.30;;
9254;SDS011;4663;49.120;9.730;2022-09-09T08:16:04;23.98;;;22.77;;
9254;SDS011;4663;49.120;9.730;2022-09-09T08:18:31;19.60;;;18.60;;
9254;SDS011;4663;49.120;9.730;2022-09-09T08:20:56;20.45;;;19.45;;
9254;SDS011;4663;49.120;9.730;2022-09-09T08:23:22;20.02;;;19.02;;
9254;SDS011;4663;49.120;9.730;2022-09-09T08:25:47;18.25;;;17.38;;
9254;SDS011;4663;49.120;9.730;2022-09-09T08:28:13;20.55;;;19.48;;
9254;SDS011;4663;49.120;9.730;2022-09-09T08:30:39;23.98;;;22.77;;
9254;SDS011;4663;49.120;9.730;2022-09-09T08:33:04;24.92;;;23.63;;
9254;SDS011;4663;49.120;9.730;2022-09-09T08:35:30;23.38;;;22.27;;
9254;SDS011;4663;49.120;9.730;2022-09-09T08:37:57;23.45;;;22.25;;
9254;SDS011;4663;49.120;9.730;2022-09-09T08:40:25;22.63;;;21.25;;
9254;SDS011;4663;49.120;9.730;2022-09-09T08:42:59;21.02;;;19.92;;
9254;SDS011;4663;49.120;9.730;2022-09-09T08:45:29;24.70;;;23.50;;
9254;SDS011;4663;49.120;9.730;2022-09-09T08:50:56;21.90;;;20.65;;
9254;SDS011;4663;49.120;9.730;2022-09-09T08:53:27;21.02;;;20.02;;
9254;SDS011;4663;49.120;9.730;2022-09-09T08:56:01;19.92;;;18.92;;
9254;SDS011;4663;49.120;9.730;2022-09-09T08:58:34;23.55;;;22.35;;
9254;SDS011;4663;49.120;9.730;2022-09-09T09:11:33;33.45;;;31.85;;
9254;SDS011;4663;49.120;9.730;2022-09-09T09:14:03;31.45;;;29.70;;
9254;SDS011;4663;49.120;9.730;2022-09-09T09:16:40;28.88;;;27.45;;
9254;SDS011;4663;49.120;9.730;2022-09-09T09:19:18;26.63;;;25.40;;
9254;SDS011;4663;49.120;9.730;2022-09-09T09:21:45;24.10;;;22.90;;
9254;SDS011;4663;49.120;9.730;2022-09-09T09:24:20;23.83;;;22.63;;
9254;SDS011;4663;49.120;9.730;2022-09-09T09:26:48;23.65;;;22.52;;
9254;SDS011;4663;49.120;9.730;2022-09-09T09:29:14;21.17;;;19.92;;
9254;SDS011;4663;49.120;9.730;2022-09-09T09:31:55;20.40;;;19.48;;
9254;SDS011;4663;49.120;9.730;2022-09-09T09:34:26;21.73;;;20.63;;
9254;SDS011;4663;49.120;9.730;2022-09-09T09:36:54;22.77;;;21.67;;
9254;SDS011;4663;49.120;9.730;2022-09-09T09:39:22;23.05;;;21.85;;
9254;SDS011;4663;49.120;9.730;2022-09-09T09:41:48;20.90;;;19.90;;
9254;SDS011;4663;49.120;9.730;2022-09-09T09:47:05;20.92;;;19.92;;
9254;SDS011;4663;49.120;9.730;2022-09-09T09:49:37;20.23;;;19.20;;
9254;SDS011;4663;49.120;9.730;2022-09-09T09:52:03;20.50;;;19.30;;
9254;SDS011;4663;49.120;9.730;2022-09-09T09:54:30;20.38;;;19.27;;
9254;SDS011;4663;49.120;9.730;2022-09-09T09:57:08;19.63;;;18.65;;
9254;SDS011;4663;49.120;9.730;2022-09-09T09:59:36;21.63;;;20.63;;
9254;SDS011;4663;49.120;9.730;2022-09-09T10:04:59;19.55;;;18.58;;
9254;SDS011;4663;49.120;9.730;2022-09-09T10:07:27;19.98;;;19.08;;
9254;SDS011;4663;49.120;9.730;2022-09-09T10:09:54;20.13;;;19.02;;
9254;SDS011;4663;49.120;9.730;2022-09-09T10:17:28;19.75;;;18.75;;
9254;SDS011;4663;49.120;9.730;2022-09-09T10:22:34;18.98;;;18.08;;
9254;SDS011;4663;49.120;9.730;2022-09-09T10:39:04;21.75;;;20.67;;
9254;SDS011;4663;49.120;9.730;2022-09-09T10:44:56;20.95;;;19.85;;
9254;SDS011;4663;49.120;9.730;2022-09-09T10:47:13;24.17;;;23.02;;
9254;SDS011;4663;49.120;9.730;2022-09-09T10:55:23;31.45;;;29.73;;
9254;SDS011;4663;49.120;9.730;2022-09-09T10:57:56;29.30;;;27.83;;
9254;SDS011;4663;49.120;9.730;2022-09-09T11:00:27;27.42;;;26.10;;
9254;SDS011;4663;49.120;9.730;2022-09-09T11:03:09;30.80;;;29.23;;
9254;SDS011;4663;49.120;9.730;2022-09-09T11:05:49;27.02;;;25.75;;
9254;SDS011;4663;49.120;9.730;2022-09-09T11:08:19;20.75;;;19.73;;
9254;SDS011;4663;49.120;9.730;2022-09-09T11:11:01;19.95;;;18.85;;
9254;SDS011;4663;49.120;9.730;2022-09-09T11:16:29;21.58;;;20.58;;
9254;SDS011;4663;49.120;9.730;2022-09-09T11:19:34;21.33;;;20.33;;
9254;SDS011;4663;49.120;9.730;2022-09-09T11:21:59;24.92;;;23.80;;
9254;SDS011;4663;49.120;9.730;2022-09-09T11:24:38;23.85;;;22.65;;
9254;SDS011;4663;49.120;9.730;2022-09-09T11:27:14;22.42;;;21.35;;
9254;SDS011;4663;49.120;9.730;2022-09-09T11:32:27;20.35;;;19.42;;
9254;SDS011;4663;49.120;9.730;2022-09-09T11:37:54;20.67;;;19.67;;
9254;SDS011;4663;49.120;9.730;2022-09-09T11:40:31;19.15;;;18.25;;
9254;SDS011;4663;49.120;9.730;2022-09-09T11:43:41;21.70;;;20.65;;
9254;SDS011;4663;49.120;9.730;2022-09-09T11:45:54;21.75;;;20.67;;
9254;SDS011;4663;49.120;9.730;2022-09-09T11:51:02;21.77;;;20.77;;
9254;SDS011;4663;49.120;9.730;2022-09-09T11:56:57;19.92;;;19.02;;
9254;SDS011;4663;49.120;9.730;2022-09-09T11:59:23;21.48;;;20.25;;
9254;SDS011;4663;49.120;9.730;2022-09-09T12:04:29;21.30;;;20.30;;
9254;SDS011;4663;49.120;9.730;2022-09-09T12:12:36;22.48;;;21.48;;
9254;SDS011;4663;49.120;9.730;2022-09-09T12:17:41;24.05;;;22.85;;
9254;SDS011;4663;49.120;9.730;2022-09-09T12:20:14;25.85;;;24.52;;
9254;SDS011;4663;49.120;9.730;2022-09-09T12:28:43;28.75;;;27.15;;
9254;SDS011;4663;49.120;9.730;2022-09-09T12:31:33;26.67;;;25.38;;
9254;SDS011;4663;49.120;9.730;2022-09-09T12:36:59;26.95;;;25.65;;
9254;SDS011;4663;49.120;9.730;2022-09-09T12:39:32;25.60;;;24.33;;
9254;SDS011;4663;49.120;9.730;2022-09-09T12:42:15;27.05;;;25.65;;
9254;SDS011;4663;49.120;9.730;2022-09-09T12:44:50;23.02;;;21.83;;
9254;SDS011;4663;49.120;9.730;2022-09-09T12:47:28;23.27;;;22.08;;
9254;SDS011;4663;49.120;9.730;2022-09-09T12:49:54;21.65;;;20.55;;
9254;SDS011;4663;49.120;9.730;2022-09-09T12:54:57;19.52;;;18.52;;
9254;SDS011;4663;49.120;9.730;2022-09-09T12:57:25;19.08;;;18.17;;
9254;SDS011;4663;49.120;9.730;2022-09-09T13:00:03;20.08;;;19.10;;
9254;SDS011;4663;49.120;9.730;2022-09-09T13:02:30;20.77;;;19.75;;
9254;SDS011;4663;49.120;9.730;2022-09-09T13:05:05;21.08;;;19.88;;
9254;SDS011;4663;49.120;9.730;2022-09-09T13:07:38;20.55;;;19.45;;
9254;SDS011;4663;49.120;9.730;2022-09-09T13:10:04;28.92;;;27.52;;
9254;SDS011;4663;49.120;9.730;2022-09-09T13:12:29;21.58;;;20.58;;
9254;SDS011;4663;49.120;9.730;2022-09-09T13:14:55;20.40;;;19.45;;
9254;SDS011;4663;49.120;9.730;2022-09-09T13:17:23;21.35;;;20.27;;
9254;SDS011;4663;49.120;9.730;2022-09-09T13:19:53;23.13;;;21.88;;
9254;SDS011;4663;49.120;9.730;2022-09-09T13:24:45;23.73;;;22.33;;
9254;SDS011;4663;49.120;9.730;2022-09-09T13:27:26;25.63;;;24.42;;
9254;SDS011;4663;49.120;9.730;2022-09-09T13:29:55;23.65;;;22.45;;
9254;SDS011;4663;49.120;9.730;2022-09-09T13:32:21;26.55;;;25.33;;
9254;SDS011;4663;49.120;9.730;2022-09-09T13:34:55;25.05;;;23.85;;
9254;SDS011;4663;49.120;9.730;2022-09-09T13:37:31;22.80;;;21.60;;
9254;SDS011;4663;49.120;9.730;2022-09-09T13:40:03;24.50;;;23.20;;
9254;SDS011;4663;49.120;9.730;2022-09-09T13:42:31;22.27;;;21.30;;
9254;SDS011;4663;49.120;9.730;2022-09-09T13:45:03;23.40;;;22.25;;
9254;SDS011;4663;49.120;9.730;2022-09-09T13:47:33;23.45;;;22.35;;
9254;SDS011;4663;49.120;9.730;2022-09-09T13:50:19;24.67;;;23.52;;
9254;SDS011;4663;49.120;9.730;2022-09-09T13:52:49;25.25;;;24.05;;
9254;SDS011;4663;49.120;9.730;2022-09-09T13:55:16;23.83;;;22.73;;
9254;SDS011;4663;49.120;9.730;2022-09-09T14:00:25;24.33;;;23.13;;
9254;SDS011;4663;49.120;9.730;2022-09-09T14:02:51;25.48;;;24.23;;
9254;SDS011;4663;49.120;9.730;2022-09-09T14:05:20;24.15;;;23.05;;
9254;SDS011;4663;49.120;9.730;2022-09-09T14:07:47;24.90;;;23.70;;
9254;SDS011;4663;49.120;9.730;2022-09-09T14:10:13;26.13;;;24.83;;
9254;SDS011;4663;49.120;9.730;2022-09-09T14:12:39;26.58;;;25.23;;
9254;SDS011;4663;49.120;9.730;2022-09-09T14:15:06;25.65;;;24.45;;
9254;SDS011;4663;49.120;9.730;2022-09-09T14:17:34;27.23;;;26.00;;
9254;SDS011;4663;49.120;9.730;2022-09-09T14:20:01;25.08;;;23.90;;
9254;SDS011;4663;49.120;9.730;2022-09-09T14:22:36;26.05;;;24.83;;
9254;SDS011;4663;49.120;9.730;2022-09-09T14:25:04;25.40;;;24.20;;
9254;SDS011;4663;49.120;9.730;2022-09-09T14:27:30;24.80;;;23.67;;
9254;SDS011;4663;49.120;9.730;2022-09-09T14:29:56;25.95;;;24.63;;
9254;SDS011;4663;49.120;9.730;2022-09-09T14:32:22;26.08;;;24.75;;
9254;SDS011;4663;49.120;9.730;2022-09-09T14:34:48;28.25;;;26.95;;
9254;SDS011;4663;49.120;9.730;2022-09-09T14:37:16;26.52;;;25.30;;
9254;SDS011;4663;49.120;9.730;2022-09-09T14:39:43;25.73;;;24.50;;
9254;SDS011;4663;49.120;9.730;2022-09-09T14:42:09;26.08;;;24.67;;
9254;SDS011;4663;49.120;9.730;2022-09-09T14:44:38;27.30;;;25.95;;
9254;SDS011;4663;49.120;9.730;2022-09-09T14:47:04;27.75;;;26.45;;
9254;SDS011;4663;49.120;9.730;2022-09-09T14:49:33;27.60;;;26.30;;
9254;SDS011;4663;49.120;9.730;2022-09-09T14:52:03;27.75;;;26.35;;
9254;SDS011;4663;49.120;9.730;2022-09-09T14:54:29;28.70;;;27.30;;
9254;SDS011;4663;49.120;9.730;2022-09-09T14:56:55;25.48;;;24.17;;
9254;SDS011;4663;49.120;9.730;2022-09-09T14:59:21;28.38;;;27.08;;
9254;SDS011;4663;49.120;9.730;2022-09-09T15:01:47;25.63;;;24.40;;
9254;SDS011;4663;49.120;9.730;2022-09-09T15:04:12;25.98;;;24.75;;
9254;SDS011;4663;49.120;9.730;2022-09-09T15:06:42;25.05;;;23.85;;
9254;SDS011;4663;49.120;9.730;2022-09-09T15:09:09;25.25;;;24.13;;
9254;SDS011;4663;49.120;9.730;2022-09-09T15:11:36;26.60;;;25.35;;
9254;SDS011;4663;49.120;9.730;2022-09-09T15:14:03;26.40;;;25.10;;
9254;SDS011;4663;49.120;9.730;2022-09-09T15:16:29;24.95;;;23.75;;
9254;SDS011;4663;49.120;9.730;2022-09-09T15:18:56;24.58;;;23.38;;
9254;SDS011;4663;49.120;9.730;2022-09-09T15:21:24;23.63;;;22.45;;
9254;SDS011;4663;49.120;9.730;2022-09-09T15:23:52;22.83;;;21.73;;
9254;SDS011;4663;49.120;9.730;2022-09-09T15:26:17;23.38;;;22.23;;
9254;SDS011;4663;49.120;9.730;2022-09-09T15:28:45;24.90;;;23.70;;
9254;SDS011;4663;49.120;9.730;2022-09-09T15:33:46;26.42;;;25.13;;
9254;SDS011;4663;49.120;9.730;2022-09-09T15:36:20;24.83;;;23.42;;
9254;SDS011;4663;49.120;9.730;2022-09-09T15:38:50;25.17;;;24.05;;
9254;SDS011;4663;49.120;9.730;2022-09-09T15:41:17;26.35;;;25.15;;
9254;SDS011;4663;49.120;9.730;2022-09-09T15:43:47;218.00;;;206.85;;
9254;SDS011;4663;49.120;9.730;2022-09-09T15:48:42;24.17;;;23.08;;
9254;SDS011;4663;49.120;9.730;2022-09-09T15:51:12;22.13;;;21.10;;
9254;SDS011;4663;49.120;9.730;2022-09-09T15:53:38;21.70;;;20.63;;
9254;SDS011;4663;49.120;9.730;2022-09-09T15:56:07;21.55;;;20.55;;
9254;SDS011;4663;49.120;9.730;2022-09-09T15:58:33;19.73;;;18.83;;
9254;SDS011;4663;49.120;9.730;2022-09-09T16:01:04;21.58;;;20.60;;
9254;SDS011;4663;49.120;9.730;2022-09-09T16:03:34;21.05;;;20.05;;
9254;SDS011;4663;49.120;9.730;2022-09-09T16:06:00;23.25;;;22.15;;
9254;SDS011;4663;49.120;9.730;2022-09-09T16:08:36;24.65;;;23.52;;
9254;SDS011;4663;49.120;9.730;2022-09-09T16:11:07;21.67;;;20.70;;
9254;SDS011;4663;49.120;9.730;2022-09-09T16:13:35;23.33;;;22.23;;
9254;SDS011;4663;49.120;9.730;2022-09-09T16:16:02;25.58;;;24.27;;
9254;SDS011;4663;49.120;9.730;2022-09-09T16:18:36;26.15;;;24.77;;
9254;SDS011;4663;49.120;9.730;2022-09-09T16:21:04;40.40;;;38.42;;
9254;SDS011;4663;49.120;9.730;2022-09-09T16:23:34;39.00;;;37.13;;
9254;SDS011;4663;49.120;9.730;2022-09-09T16:26:00;43.13;;;40.92;;
9254;SDS011;4663;49.120;9.730;2022-09-09T16:28:26;41.22;;;39.05;;
9254;SDS011;4663;49.120;9.730;2022-09-09T16:30:52;41.53;;;39.50;;
9254;SDS011;4663;49.120;9.730;2022-09-09T16:33:17;41.15;;;39.13;;
9254;SDS011;4663;49.120;9.730;2022-09-09T16:35:43;41.72;;;39.63;;
9254;SDS011;4663;49.120;9.730;2022-09-09T16:38:09;39.97;;;38.03;;
9254;SDS011;4663;49.120;9.730;2022-09-09T16:40:35;39.72;;;37.60;;
9254;SDS011;4663;49.120;9.730;2022-09-09T16:43:01;40.58;;;38.63;;
9254;SDS011;4663;49.120;9.730;2022-09-09T16:45:27;46.00;;;43.60;;
9254;SDS011;4663;49.120;9.730;2022-09-09T16:47:53;42.55;;;40.55;;
9254;SDS011;4663;49.120;9.730;2022-09-09T16:50:18;46.35;;;44.22;;
9254;SDS011;4663;49.120;9.730;2022-09-09T16:52:44;43.53;;;41.40;;
9254;SDS011;4663;49.120;9.730;2022-09-09T16:55:09;46.55;;;44.35;;
9254;SDS011;4663;49.120;9.730;2022-09-09T16:57:35;49.47;;;47.15;;
9254;SDS011;4663;49.120;9.730;2022-09-09T17:00:00;52.47;;;49.97;;
9254;SDS011;4663;49.120;9.730;2022-09-09T17:02:29;53.67;;;51.05;;
9254;SDS011;4663;49.120;9.730;2022-09-09T17:04:55;52.40;;;49.90;;
9254;SDS011;4663;49.120;9.730;2022-09-09T17:07:20;51.20;;;48.78;;
9254;SDS011;4663;49.120;9.730;2022-09-09T17:09:45;65.53;;;62.42;;
9254;SDS011;4663;49.120;9.730;2022-09-09T17:12:11;50.17;;;47.78;;
9254;SDS011;4663;49.120;9.730;2022-09-09T17:14:37;52.67;;;50.03;;
9254;SDS011;4663;49.120;9.730;2022-09-09T17:17:03;50.92;;;48.50;;
9254;SDS011;4663;49.120;9.730;2022-09-09T17:19:29;49.53;;;46.95;;
9254;SDS011;4663;49.120;9.730;2022-09-09T17:21:55;49.55;;;47.08;;
9254;SDS011;4663;49.120;9.730;2022-09-09T17:24:22;50.25;;;47.65;;
9254;SDS011;4663;49.120;9.730;2022-09-09T17:26:48;46.70;;;44.53;;
9254;SDS011;4663;49.120;9.730;2022-09-09T17:29:13;48.33;;;46.05;;
9254;SDS011;4663;49.120;9.730;2022-09-09T17:31:39;47.88;;;45.58;;